Time;durP1;ratioP1;P1;durP2;ratioP2;P2;SDS_P1;SDS_P2;PMS_P1;PMS_P2;Temp;Humidity;BMP_temperature;BMP_pressure;BME280_temperature;BME280_humidity;BME280_pressure;Samples;Min_cycle;Max_cycle;Signal;HPM_P1;HPM_P2
2022/09/17 00:00:21;;;;;;;3.33;0.80;;;;;;;;;;5055738;28;20025;-70
2022/09/17 00:02:53;;;;;;;2.97;0.70;;;;;;;;;;5055757;28;20028;-72
2022/09/17 00:05:18;;;;;;;5.88;1.00;;;;;;;;;;5055390;28;20025;-71
2022/09/17 00:07:44;;;;;;;3.90;0.80;;;;;;;;;;5055489;28;20027;-73
2022/09/17 00:10:09;;;;;;;3.58;0.80;;;;;;;;;;5055108;28;20029;-73
2022/09/17 00:12:35;;;;;;;3.72;0.85;;;;;;;;;;5055512;28;20033;-72
2022/09/17 00:15:00;;;;;;;4.13;0.90;;;;;;;;;;5055369;28;20442;-72
2022/09/17 00:17:26;;;;;;;4.80;1.02;;;;;;;;;;5055387;28;20025;-72
2022/09/17 00:19:51;;;;;;;3.33;1.27;;;;;;;;;;5055132;28;20041;-72
2022/09/17 00:22:17;;;;;;;2.35;1.00;;;;;;;;;;5054905;28;20521;-73
2022/09/17 00:24:42;;;;;;;4.55;1.27;;;;;;;;;;5055069;28;20029;-73
2022/09/17 00:27:08;;;;;;;2.42;1.02;;;;;;;;;;5055091;28;20028;-73
2022/09/17 00:29:33;;;;;;;4.15;1.30;;;;;;;;;;5055058;28;20028;-73
2022/09/17 00:31:59;;;;;;;3.38;1.30;;;;;;;;;;5055264;28;20025;-73
2022/09/17 00:34:24;;;;;;;4.90;1.15;;;;;;;;;;5054904;28;20394;-72
2022/09/17 00:36:50;;;;;;;4.35;1.20;;;;;;;;;;5054968;28;20025;-70
2022/09/17 00:39:16;;;;;;;4.20;1.13;;;;;;;;;;5054870;28;20028;-71
2022/09/17 00:41:42;;;;;;;2.33;1.27;;;;;;;;;;5053520;28;20036;-70
2022/09/17 00:44:47;;;;;;;5.00;1.13;;;;;;;;;;5054763;28;20021;-71
2022/09/17 00:47:38;;;;;;;2.97;1.00;;;;;;;;;;5054875;28;20037;-72
2022/09/17 00:50:14;;;;;;;2.33;1.20;;;;;;;;;;5054762;28;20029;-68
2022/09/17 00:52:46;;;;;;;3.03;1.10;;;;;;;;;;5054743;28;20068;-67
2022/09/17 00:55:21;;;;;;;5.28;1.35;;;;;;;;;;5054186;28;20028;-67
2022/09/17 00:57:49;;;;;;;2.90;1.13;;;;;;;;;;5054663;28;20112;-72
2022/09/17 01:00:16;;;;;;;2.28;1.10;;;;;;;;;;5052863;28;20017;-72
2022/09/17 01:02:42;;;;;;;2.83;0.90;;;;;;;;;;5054436;28;20025;-72
2022/09/17 01:05:10;;;;;;;4.03;1.20;;;;;;;;;;5054445;28;20033;-68
2022/09/17 01:08:15;;;;;;;3.28;1.42;;;;;;;;;;5054363;28;20029;-68
2022/09/17 01:10:59;;;;;;;2.88;1.35;;;;;;;;;;5032424;28;20037;-68
2022/09/17 01:13:36;;;;;;;3.63;1.10;;;;;;;;;;5032130;28;20132;-67
2022/09/17 01:16:14;;;;;;;1.73;1.20;;;;;;;;;;5032074;28;20036;-68
2022/09/17 01:18:55;;;;;;;3.70;1.30;;;;;;;;;;5032298;28;20033;-69
2022/09/17 01:21:26;;;;;;;2.47;1.27;;;;;;;;;;5031772;28;20041;-70
2022/09/17 01:24:21;;;;;;;2.97;1.35;;;;;;;;;;5031751;28;20033;-68
2022/09/17 01:27:08;;;;;;;2.10;1.30;;;;;;;;;;5028245;28;20037;-69
2022/09/17 01:29:53;;;;;;;4.15;1.70;;;;;;;;;;5031904;28;20041;-70
2022/09/17 01:32:29;;;;;;;3.13;1.38;;;;;;;;;;5031319;28;20045;-71
2022/09/17 01:35:09;;;;;;;2.63;1.50;;;;;;;;;;5031561;28;20082;-69
2022/09/17 01:37:51;;;;;;;3.97;1.52;;;;;;;;;;5031566;28;20030;-72
2022/09/17 01:40:25;;;;;;;4.55;1.90;;;;;;;;;;5031548;28;20034;-67
2022/09/17 01:43:01;;;;;;;5.68;1.60;;;;;;;;;;5031790;28;20033;-69
2022/09/17 01:46:04;;;;;;;4.40;1.40;;;;;;;;;;5032197;28;20124;-67
2022/09/17 01:48:38;;;;;;;3.15;1.58;;;;;;;;;;5011870;28;20541;-68
2022/09/17 01:51:07;;;;;;;4.45;1.63;;;;;;;;;;5011910;28;20192;-69
2022/09/17 01:53:57;;;;;;;7.53;2.05;;;;;;;;;;5011524;28;20037;-67
2022/09/17 01:56:28;;;;;;;3.47;2.03;;;;;;;;;;5011779;28;20052;-68
2022/09/17 01:59:12;;;;;;;3.88;2.40;;;;;;;;;;5011713;28;20105;-68
2022/09/17 02:01:41;;;;;;;5.53;2.72;;;;;;;;;;5011607;28;20025;-72
2022/09/17 02:04:13;;;;;;;4.82;2.75;;;;;;;;;;5011301;28;20112;-68
2022/09/17 02:06:44;;;;;;;6.35;3.20;;;;;;;;;;5011366;28;20033;-68
2022/09/17 02:09:23;;;;;;;7.22;3.20;;;;;;;;;;5011457;28;20034;-68
2022/09/17 02:11:54;;;;;;;8.02;3.20;;;;;;;;;;5011246;28;20038;-68
2022/09/17 02:14:28;;;;;;;5.63;3.58;;;;;;;;;;5010991;28;20128;-67
2022/09/17 02:17:05;;;;;;;7.20;3.65;;;;;;;;;;5011381;28;20073;-68
2022/09/17 02:19:36;;;;;;;7.57;3.33;;;;;;;;;;5011048;28;20061;-67
2022/09/17 02:22:05;;;;;;;6.47;3.40;;;;;;;;;;5031416;28;20358;-69
2022/09/17 02:24:37;;;;;;;7.55;4.28;;;;;;;;;;5053086;28;20086;-67
2022/09/17 02:27:10;;;;;;;4.95;3.40;;;;;;;;;;5052923;28;20056;-67
2022/09/17 02:29:42;;;;;;;5.55;3.33;;;;;;;;;;5053040;28;20051;-67
2022/09/17 02:32:08;;;;;;;6.22;3.67;;;;;;;;;;5052049;28;20028;-68
2022/09/17 02:34:35;;;;;;;5.78;3.47;;;;;;;;;;5052712;28;20053;-68
2022/09/17 02:37:00;;;;;;;6.75;3.80;;;;;;;;;;5052520;28;20025;-68
2022/09/17 02:39:27;;;;;;;5.80;3.60;;;;;;;;;;5052823;28;20020;-68
2022/09/17 02:41:55;;;;;;;6.93;3.60;;;;;;;;;;5052605;28;20047;-68
2022/09/17 02:44:58;;;;;;;7.30;3.97;;;;;;;;;;5051285;28;20497;-67
2022/09/17 02:47:36;;;;;;;6.00;3.83;;;;;;;;;;5052704;28;20033;-68
2022/09/17 02:50:17;;;;;;;7.80;3.67;;;;;;;;;;5052434;28;20017;-67
2022/09/17 02:53:02;;;;;;;7.15;3.65;;;;;;;;;;5052683;28;20025;-68
2022/09/17 02:55:39;;;;;;;8.75;3.92;;;;;;;;;;5052488;28;20131;-67
2022/09/17 02:58:33;;;;;;;10.55;4.25;;;;;;;;;;5052624;28;20031;-69
2022/09/17 03:01:03;;;;;;;6.40;3.63;;;;;;;;;;5050725;28;20033;-67
2022/09/17 03:03:40;;;;;;;6.97;3.33;;;;;;;;;;5052630;28;20033;-68
2022/09/17 03:06:05;;;;;;;8.50;4.13;;;;;;;;;;5052172;28;20051;-68
2022/09/17 03:08:35;;;;;;;11.38;4.32;;;;;;;;;;5052491;28;20100;-68
2022/09/17 03:11:02;;;;;;;7.50;3.95;;;;;;;;;;5052565;28;20021;-68
2022/09/17 03:13:27;;;;;;;8.45;4.13;;;;;;;;;;5052455;28;20037;-67
2022/09/17 03:15:53;;;;;;;7.88;4.15;;;;;;;;;;5052178;28;20470;-68
2022/09/17 03:18:18;;;;;;;8.20;4.30;;;;;;;;;;5052200;28;20028;-68
2022/09/17 03:20:45;;;;;;;6.72;4.13;;;;;;;;;;5051747;28;20152;-67
2022/09/17 03:23:10;;;;;;;8.70;4.57;;;;;;;;;;5052545;28;20037;-72
2022/09/17 03:25:36;;;;;;;9.00;4.43;;;;;;;;;;5056310;28;20032;-71
2022/09/17 03:28:01;;;;;;;7.95;3.70;;;;;;;;;;5056191;28;20025;-71
2022/09/17 03:30:27;;;;;;;9.82;3.85;;;;;;;;;;5056189;28;20163;-72
2022/09/17 03:32:52;;;;;;;6.07;3.85;;;;;;;;;;5056190;28;20021;-72
2022/09/17 03:35:18;;;;;;;6.13;3.70;;;;;;;;;;5054682;28;20065;-69
2022/09/17 03:37:43;;;;;;;8.90;4.28;;;;;;;;;;5056072;28;20025;-72
2022/09/17 03:40:09;;;;;;;10.00;4.00;;;;;;;;;;5055970;28;20099;-72
2022/09/17 03:42:34;;;;;;;12.20;4.38;;;;;;;;;;5056124;28;20074;-72
2022/09/17 03:45:00;;;;;;;11.38;4.47;;;;;;;;;;5055878;28;20040;-68
2022/09/17 03:47:25;;;;;;;8.27;4.13;;;;;;;;;;5055615;28;20017;-72
2022/09/17 03:49:51;;;;;;;7.20;3.90;;;;;;;;;;5055866;28;20040;-72
2022/09/17 03:52:17;;;;;;;7.43;3.47;;;;;;;;;;5055740;28;20021;-72
2022/09/17 03:54:42;;;;;;;5.47;3.53;;;;;;;;;;5055652;28;20184;-72
2022/09/17 03:57:08;;;;;;;8.15;4.03;;;;;;;;;;5055649;28;20451;-72
2022/09/17 03:59:33;;;;;;;7.53;3.92;;;;;;;;;;5055628;28;20025;-72
2022/09/17 04:01:59;;;;;;;9.23;3.65;;;;;;;;;;5055349;28;20078;-67
2022/09/17 04:04:24;;;;;;;7.95;3.63;;;;;;;;;;5055540;28;20048;-72
2022/09/17 04:06:50;;;;;;;9.90;3.38;;;;;;;;;;5055540;28;20043;-72
2022/09/17 04:09:15;;;;;;;6.70;3.95;;;;;;;;;;5054281;28;20020;-71
2022/09/17 04:11:41;;;;;;;5.22;3.70;;;;;;;;;;5055557;28;20028;-67
2022/09/17 04:14:06;;;;;;;7.63;4.10;;;;;;;;;;5055198;28;20025;-68
2022/09/17 04:16:32;;;;;;;7.68;3.60;;;;;;;;;;5055226;28;20035;-72
2022/09/17 04:18:57;;;;;;;7.55;3.70;;;;;;;;;;5054007;28;20470;-70
2022/09/17 04:21:23;;;;;;;7.30;3.70;;;;;;;;;;5055048;28;20055;-67
2022/09/17 04:23:49;;;;;;;7.07;3.83;;;;;;;;;;5055434;28;20025;-67
2022/09/17 04:26:18;;;;;;;7.10;3.60;;;;;;;;;;5055265;28;20486;-68
2022/09/17 04:28:43;;;;;;;6.68;3.17;;;;;;;;;;5055192;28;20096;-67
2022/09/17 04:31:09;;;;;;;9.40;3.60;;;;;;;;;;5054858;28;20043;-67
2022/09/17 04:33:34;;;;;;;8.73;3.72;;;;;;;;;;5055278;28;20047;-70
2022/09/17 04:36:00;;;;;;;10.85;3.83;;;;;;;;;;5052960;28;20028;-71
2022/09/17 04:38:25;;;;;;;6.40;3.50;;;;;;;;;;5055026;28;20035;-69
2022/09/17 04:40:51;;;;;;;8.63;4.00;;;;;;;;;;5054899;28;20055;-72
2022/09/17 04:43:16;;;;;;;5.78;3.58;;;;;;;;;;5055066;28;20041;-68
2022/09/17 04:45:45;;;;;;;7.45;3.90;;;;;;;;;;5054648;28;20478;-70
2022/09/17 04:48:11;;;;;;;5.70;3.25;;;;;;;;;;5054800;28;20047;-69
2022/09/17 04:50:37;;;;;;;7.60;3.63;;;;;;;;;;5054899;28;20466;-68
2022/09/17 04:53:02;;;;;;;7.60;3.40;;;;;;;;;;5054786;28;20428;-67
2022/09/17 04:55:28;;;;;;;7.35;3.70;;;;;;;;;;5036627;28;20078;-71
2022/09/17 04:57:53;;;;;;;9.88;3.70;;;;;;;;;;5054586;28;20083;-68
2022/09/17 05:00:20;;;;;;;9.40;3.20;;;;;;;;;;5054441;28;20056;-69
2022/09/17 05:02:48;;;;;;;8.13;3.55;;;;;;;;;;5054616;28;20032;-71
2022/09/17 05:05:15;;;;;;;7.05;3.15;;;;;;;;;;5054403;28;20079;-68
2022/09/17 05:07:41;;;;;;;5.13;3.15;;;;;;;;;;5054245;28;20065;-70
2022/09/17 05:10:07;;;;;;;8.88;3.47;;;;;;;;;;5052923;28;20112;-72
2022/09/17 05:12:33;;;;;;;7.40;3.35;;;;;;;;;;5054321;28;20029;-71
2022/09/17 05:14:58;;;;;;;10.77;3.53;;;;;;;;;;5052596;28;20028;-68
2022/09/17 05:17:24;;;;;;;8.38;3.58;;;;;;;;;;5054238;28;20415;-72
2022/09/17 05:19:50;;;;;;;7.20;3.28;;;;;;;;;;5053980;28;20448;-71
2022/09/17 05:22:18;;;;;;;8.60;3.42;;;;;;;;;;5053843;28;20069;-68
2022/09/17 05:24:43;;;;;;;5.25;2.92;;;;;;;;;;5054178;28;20060;-68
2022/09/17 05:27:09;;;;;;;9.43;3.53;;;;;;;;;;5053943;28;20053;-68
2022/09/17 05:29:35;;;;;;;6.93;3.17;;;;;;;;;;5053699;28;20036;-69
2022/09/17 05:32:02;;;;;;;8.65;2.67;;;;;;;;;;5053834;28;20070;-69
2022/09/17 05:34:27;;;;;;;8.70;2.90;;;;;;;;;;5052572;28;20033;-67
2022/09/17 05:36:53;;;;;;;12.60;3.67;;;;;;;;;;5053780;28;20510;-70
2022/09/17 05:39:21;;;;;;;6.07;2.72;;;;;;;;;;5053825;28;20025;-68
2022/09/17 05:41:47;;;;;;;5.45;2.58;;;;;;;;;;5053651;28;20025;-69
2022/09/17 05:44:12;;;;;;;6.82;3.20;;;;;;;;;;5053245;28;20472;-68
2022/09/17 05:46:38;;;;;;;5.80;2.40;;;;;;;;;;5053209;28;20359;-68
2022/09/17 05:49:03;;;;;;;9.73;2.55;;;;;;;;;;5053170;28;20055;-68
2022/09/17 05:51:30;;;;;;;7.00;2.72;;;;;;;;;;5053454;28;20482;-68
2022/09/17 05:53:56;;;;;;;8.73;2.25;;;;;;;;;;5053194;28;20031;-67
2022/09/17 05:56:22;;;;;;;7.20;2.55;;;;;;;;;;5053513;28;20025;-68
2022/09/17 05:58:48;;;;;;;9.18;2.20;;;;;;;;;;5053204;28;20052;-67
2022/09/17 06:01:15;;;;;;;8.35;2.40;;;;;;;;;;5053537;28;20053;-68
2022/09/17 06:03:41;;;;;;;7.82;2.10;;;;;;;;;;5053236;28;20478;-68
2022/09/17 06:06:06;;;;;;;9.45;2.45;;;;;;;;;;5053150;28;20027;-67
2022/09/17 06:08:34;;;;;;;6.55;1.98;;;;;;;;;;5053327;28;20449;-67
2022/09/17 06:11:03;;;;;;;6.68;2.30;;;;;;;;;;5053292;28;20378;-68
2022/09/17 06:13:29;;;;;;;6.43;2.58;;;;;;;;;;5053031;28;20304;-68
2022/09/17 06:15:55;;;;;;;9.30;2.08;;;;;;;;;;5053048;28;20115;-67
2022/09/17 06:18:20;;;;;;;7.20;2.10;;;;;;;;;;5051800;28;20076;-67
2022/09/17 06:20:54;;;;;;;6.95;2.03;;;;;;;;;;5052661;28;20063;-68
2022/09/17 06:23:20;;;;;;;9.90;2.88;;;;;;;;;;5053121;28;20078;-67
2022/09/17 06:25:53;;;;;;;7.88;2.10;;;;;;;;;;5052926;28;20036;-69
2022/09/17 06:28:18;;;;;;;9.02;2.30;;;;;;;;;;5052755;28;20374;-69
2022/09/17 06:30:44;;;;;;;9.35;2.58;;;;;;;;;;5052983;28;20029;-67
2022/09/17 06:33:09;;;;;;;8.90;2.15;;;;;;;;;;5052920;28;20025;-68
2022/09/17 06:35:35;;;;;;;6.63;2.00;;;;;;;;;;5052722;28;20025;-68
2022/09/17 06:38:03;;;;;;;12.60;2.35;;;;;;;;;;5052791;28;20020;-67
2022/09/17 06:40:29;;;;;;;9.10;2.35;;;;;;;;;;5052895;28;20374;-68
2022/09/17 06:42:58;;;;;;;13.88;2.75;;;;;;;;;;5052610;28;20107;-68
2022/09/17 06:45:27;;;;;;;5.83;2.13;;;;;;;;;;5052775;28;20025;-68
2022/09/17 06:47:52;;;;;;;9.25;2.05;;;;;;;;;;5052734;28;20114;-70
2022/09/17 06:50:18;;;;;;;9.95;1.90;;;;;;;;;;5052795;28;20060;-70
2022/09/17 06:52:51;;;;;;;6.85;1.73;;;;;;;;;;5052589;28;20016;-72
2022/09/17 06:55:18;;;;;;;10.65;1.90;;;;;;;;;;5052514;28;20071;-72
2022/09/17 06:57:44;;;;;;;5.05;1.67;;;;;;;;;;5052388;28;20393;-71
2022/09/17 07:00:11;;;;;;;7.93;1.70;;;;;;;;;;5058606;28;20048;-71
2022/09/17 07:02:36;;;;;;;7.38;1.45;;;;;;;;;;5059156;28;20021;-73
2022/09/17 07:05:04;;;;;;;7.32;1.40;;;;;;;;;;5058973;28;20048;-68
2022/09/17 07:07:30;;;;;;;6.47;1.88;;;;;;;;;;5059304;28;20043;-72
2022/09/17 07:09:56;;;;;;;3.75;1.20;;;;;;;;;;5059145;28;20025;-72
2022/09/17 07:12:21;;;;;;;7.28;1.50;;;;;;;;;;5058865;28;20021;-72
2022/09/17 07:14:46;;;;;;;8.65;1.70;;;;;;;;;;5058923;28;20036;-72
2022/09/17 07:17:13;;;;;;;4.88;1.27;;;;;;;;;;5058846;28;20470;-72
2022/09/17 07:19:38;;;;;;;6.88;1.70;;;;;;;;;;5057327;28;20517;-72
2022/09/17 07:22:04;;;;;;;4.80;1.52;;;;;;;;;;5058621;28;20104;-70
2022/09/17 07:24:29;;;;;;;6.90;1.65;;;;;;;;;;5058777;28;20083;-68
2022/09/17 07:26:55;;;;;;;6.72;1.35;;;;;;;;;;5058584;28;20031;-71
2022/09/17 07:29:22;;;;;;;5.53;1.20;;;;;;;;;;5059047;28;20029;-70
2022/09/17 07:31:48;;;;;;;2.67;1.05;;;;;;;;;;5058853;28;20033;-70
2022/09/17 07:34:13;;;;;;;2.33;1.10;;;;;;;;;;5058653;28;20033;-67
2022/09/17 07:36:39;;;;;;;4.13;1.35;;;;;;;;;;5058935;28;20541;-66
2022/09/17 07:39:04;;;;;;;3.75;0.90;;;;;;;;;;5058982;28;20397;-67
2022/09/17 07:41:30;;;;;;;4.32;1.00;;;;;;;;;;5058699;28;20450;-67
2022/09/17 07:43:56;;;;;;;2.83;0.90;;;;;;;;;;5058707;28;20021;-67
2022/09/17 07:46:21;;;;;;;2.70;1.10;;;;;;;;;;5058825;28;20070;-71
2022/09/17 07:48:48;;;;;;;4.95;1.38;;;;;;;;;;5058794;28;20020;-67
2022/09/17 07:51:18;;;;;;;3.08;1.10;;;;;;;;;;5058858;28;20028;-71
2022/09/17 07:53:44;;;;;;;3.13;1.10;;;;;;;;;;5058668;28;20032;-67
2022/09/17 07:56:10;;;;;;;5.57;1.08;;;;;;;;;;5058285;28;20029;-71
2022/09/17 07:58:35;;;;;;;6.32;1.40;;;;;;;;;;5058770;28;20525;-70
2022/09/17 08:01:09;;;;;;;6.15;1.30;;;;;;;;;;5058591;28;20017;-67
2022/09/17 08:03:35;;;;;;;5.10;1.10;;;;;;;;;;5058518;28;20481;-71
2022/09/17 08:06:12;;;;;;;4.18;1.10;;;;;;;;;;5058500;28;20040;-67
2022/09/17 08:08:39;;;;;;;9.48;1.58;;;;;;;;;;5058406;28;20486;-68
2022/09/17 08:11:09;;;;;;;5.28;1.20;;;;;;;;;;5055300;28;20393;-67
2022/09/17 08:13:36;;;;;;;6.88;1.30;;;;;;;;;;5055367;28;20087;-69
2022/09/17 08:16:04;;;;;;;9.02;1.73;;;;;;;;;;5054990;28;20032;-71
2022/09/17 08:18:30;;;;;;;10.82;1.98;;;;;;;;;;5055056;28;20032;-66
2022/09/17 08:20:57;;;;;;;12.10;2.13;;;;;;;;;;5054628;28;20128;-67
2022/09/17 08:23:23;;;;;;;12.77;2.03;;;;;;;;;;5053470;28;20036;-67
2022/09/17 08:25:53;;;;;;;7.60;1.90;;;;;;;;;;5055050;28;20033;-70
2022/09/17 08:28:19;;;;;;;9.90;1.70;;;;;;;;;;5053844;28;20060;-71
2022/09/17 08:30:47;;;;;;;10.98;2.40;;;;;;;;;;5055235;28;20056;-72
2022/09/17 08:33:12;;;;;;;12.35;1.75;;;;;;;;;;5055036;28;20032;-68
2022/09/17 08:35:38;;;;;;;13.35;2.15;;;;;;;;;;5054975;28;20481;-71
2022/09/17 08:38:03;;;;;;;10.65;2.13;;;;;;;;;;5054785;28;20025;-69
2022/09/17 08:40:30;;;;;;;19.70;2.45;;;;;;;;;;5054826;28;20017;-67
2022/09/17 08:43:01;;;;;;;11.48;2.05;;;;;;;;;;5054807;28;20052;-69
2022/09/17 08:45:28;;;;;;;11.45;2.00;;;;;;;;;;5054846;28;20490;-71
2022/09/17 08:48:01;;;;;;;9.10;1.80;;;;;;;;;;5054723;28;20032;-68
2022/09/17 08:50:40;;;;;;;12.55;2.00;;;;;;;;;;5054786;28;20032;-68
2022/09/17 08:53:37;;;;;;;10.05;2.05;;;;;;;;;;5054401;28;20025;-68
2022/09/17 08:56:17;;;;;;;6.85;1.42;;;;;;;;;;5054501;28;20025;-72
2022/09/17 08:59:02;;;;;;;9.80;2.00;;;;;;;;;;5054531;28;20115;-69
2022/09/17 09:01:33;;;;;;;14.45;2.63;;;;;;;;;;5054469;28;20107;-68
2022/09/17 09:04:18;;;;;;;14.18;2.53;;;;;;;;;;5054305;28;20576;-68
2022/09/17 09:07:24;;;;;;;15.82;2.97;;;;;;;;;;5054076;28;20474;-67
2022/09/17 09:10:03;;;;;;;8.95;1.65;;;;;;;;;;5053510;28;20033;-69
2022/09/17 09:12:33;;;;;;;12.18;2.08;;;;;;;;;;5054204;28;20087;-67
2022/09/17 09:15:39;;;;;;;8.98;2.03;;;;;;;;;;5054141;28;20027;-68
2022/09/17 09:18:19;;;;;;;12.07;2.05;;;;;;;;;;5031936;28;20036;-68
2022/09/17 09:21:16;;;;;;;15.45;2.05;;;;;;;;;;5031668;28;20132;-68
2022/09/17 09:24:00;;;;;;;11.95;2.42;;;;;;;;;;5031934;28;20065;-67
2022/09/17 09:26:28;;;;;;;10.82;2.28;;;;;;;;;;5031925;28;20061;-68
2022/09/17 09:29:20;;;;;;;14.00;2.20;;;;;;;;;;5031127;28;20037;-69
2022/09/17 09:32:19;;;;;;;13.32;1.85;;;;;;;;;;5031828;28;20037;-72
2022/09/17 09:34:47;;;;;;;11.05;1.90;;;;;;;;;;5031793;28;20441;-69
2022/09/17 09:37:52;;;;;;;10.77;1.83;;;;;;;;;;5031606;28;20103;-68
2022/09/17 09:40:26;;;;;;;12.57;2.30;;;;;;;;;;4934245;29;20046;-68
2022/09/17 09:42:54;;;;;;;14.43;2.10;;;;;;;;;;4934511;29;20525;-68
2022/09/17 09:45:55;;;;;;;15.18;2.70;;;;;;;;;;4934349;29;20105;-72
2022/09/17 09:48:53;;;;;;;9.27;1.75;;;;;;;;;;4877807;29;20037;-67
2022/09/17 09:51:33;;;;;;;15.25;2.40;;;;;;;;;;4877655;29;20074;-69
2022/09/17 09:54:28;;;;;;;14.82;2.08;;;;;;;;;;4877661;29;20033;-68
2022/09/17 09:57:02;;;;;;;12.55;2.00;;;;;;;;;;4876833;29;20045;-68
2022/09/17 09:59:27;;;;;;;13.15;2.25;;;;;;;;;;4877733;29;20456;-67
2022/09/17 10:01:53;;;;;;;9.75;2.30;;;;;;;;;;4877557;29;20625;-68
2022/09/17 10:04:23;;;;;;;11.40;2.05;;;;;;;;;;4877460;29;20029;-68
2022/09/17 10:06:59;;;;;;;9.23;2.03;;;;;;;;;;4877399;29;20029;-71
2022/09/17 10:09:26;;;;;;;12.80;2.25;;;;;;;;;;4877459;29;20033;-68
2022/09/17 10:12:05;;;;;;;8.63;1.60;;;;;;;;;;4877647;29;20073;-68
2022/09/17 10:14:38;;;;;;;8.95;1.60;;;;;;;;;;4877517;29;20526;-68
2022/09/17 10:17:19;;;;;;;10.05;1.50;;;;;;;;;;4991680;28;20392;-71
2022/09/17 10:20:09;;;;;;;5.25;1.25;;;;;;;;;;4991234;28;20112;-71
2022/09/17 10:22:38;;;;;;;5.30;1.10;;;;;;;;;;5006394;28;20038;-72
2022/09/17 10:25:17;;;;;;;9.48;1.45;;;;;;;;;;5032963;28;20026;-71
2022/09/17 10:27:44;;;;;;;8.13;1.40;;;;;;;;;;5033099;28;20121;-72
2022/09/17 10:30:15;;;;;;;6.47;1.75;;;;;;;;;;5031590;28;20032;-72
2022/09/17 10:32:41;;;;;;;6.28;1.60;;;;;;;;;;5049965;28;20115;-73
2022/09/17 10:35:33;;;;;;;9.00;1.50;;;;;;;;;;5052123;28;20104;-73
2022/09/17 10:37:59;;;;;;;7.90;1.88;;;;;;;;;;5049802;28;20497;-73
2022/09/17 10:40:27;;;;;;;6.93;1.73;;;;;;;;;;5052723;28;20025;-72
2022/09/17 10:43:18;;;;;;;6.03;1.52;;;;;;;;;;5052754;28;20104;-72
2022/09/17 10:45:54;;;;;;;6.30;1.95;;;;;;;;;;5052669;28;20021;-72
2022/09/17 10:48:20;;;;;;;8.00;1.85;;;;;;;;;;5052408;28;20095;-72
2022/09/17 10:50:50;;;;;;;6.32;1.88;;;;;;;;;;5052589;28;20462;-73
2022/09/17 10:53:17;;;;;;;12.35;2.88;;;;;;;;;;5052619;28;20032;-73
2022/09/17 10:55:49;;;;;;;9.77;1.83;;;;;;;;;;5052502;28;20120;-68
2022/09/17 10:58:26;;;;;;;11.77;2.05;;;;;;;;;;5052525;28;20043;-72
2022/09/17 11:01:13;;;;;;;8.82;1.90;;;;;;;;;;5052573;28;20478;-71
2022/09/17 11:04:11;;;;;;;10.85;2.40;;;;;;;;;;5052232;28;20060;-67
2022/09/17 11:06:55;;;;;;;11.32;2.53;;;;;;;;;;5052626;28;20490;-69
2022/09/17 11:09:38;;;;;;;12.65;2.83;;;;;;;;;;5052283;28;20490;-68
2022/09/17 11:12:12;;;;;;;12.02;2.80;;;;;;;;;;5052228;28;20029;-72
2022/09/17 11:14:47;;;;;;;12.15;2.25;;;;;;;;;;5052341;28;20029;-72
2022/09/17 11:17:49;;;;;;;13.70;2.17;;;;;;;;;;5052299;28;20060;-68
2022/09/17 11:20:28;;;;;;;15.93;2.40;;;;;;;;;;5052096;28;20056;-67
2022/09/17 11:23:18;;;;;;;9.73;2.08;;;;;;;;;;5032490;28;20494;-68
2022/09/17 11:25:51;;;;;;;9.10;2.03;;;;;;;;;;5032388;28;20025;-71
2022/09/17 11:28:41;;;;;;;12.40;2.15;;;;;;;;;;5032141;28;20297;-68
2022/09/17 11:31:48;;;;;;;9.02;2.10;;;;;;;;;;5032342;28;20084;-69
2022/09/17 11:34:20;;;;;;;8.73;1.73;;;;;;;;;;5032141;28;20096;-72
2022/09/17 11:37:10;;;;;;;8.95;1.80;;;;;;;;;;5032365;28;20037;-70
2022/09/17 11:40:03;;;;;;;14.10;2.75;;;;;;;;;;5032276;28;20018;-72
2022/09/17 11:43:11;;;;;;;11.65;2.00;;;;;;;;;;5010324;28;20069;-71
2022/09/17 11:45:40;;;;;;;11.15;2.15;;;;;;;;;;4933680;29;20123;-71
2022/09/17 11:48:37;;;;;;;7.60;2.33;;;;;;;;;;4936171;29;20469;-73
2022/09/17 11:51:21;;;;;;;10.20;2.22;;;;;;;;;;4898614;29;20595;-70
2022/09/17 11:53:53;;;;;;;8.10;1.40;;;;;;;;;;4898418;29;20045;-71
2022/09/17 11:56:37;;;;;;;12.57;1.95;;;;;;;;;;4898446;29;20076;-71
2022/09/17 11:59:15;;;;;;;8.23;2.03;;;;;;;;;;4898458;29;20523;-68
2022/09/17 12:01:45;;;;;;;11.10;2.38;;;;;;;;;;4898362;29;20045;-68
2022/09/17 12:04:34;;;;;;;8.90;1.67;;;;;;;;;;4898493;29;20435;-68
2022/09/17 12:07:37;;;;;;;9.27;2.35;;;;;;;;;;4898303;29;20168;-67
2022/09/17 12:10:16;;;;;;;9.98;2.00;;;;;;;;;;4898276;29;20032;-67
2022/09/17 12:12:52;;;;;;;8.48;2.22;;;;;;;;;;4898248;29;20145;-73
2022/09/17 12:15:21;;;;;;;8.20;2.53;;;;;;;;;;4898063;29;20487;-72
2022/09/17 12:17:51;;;;;;;9.25;2.10;;;;;;;;;;4897982;29;20120;-67
2022/09/17 12:20:36;;;;;;;13.23;1.90;;;;;;;;;;4976942;28;20050;-67
2022/09/17 12:23:09;;;;;;;11.07;2.13;;;;;;;;;;4993609;28;20153;-67
2022/09/17 12:25:48;;;;;;;12.90;2.00;;;;;;;;;;4993773;28;20034;-67
2022/09/17 12:28:37;;;;;;;8.23;1.80;;;;;;;;;;5022335;28;20041;-68
2022/09/17 12:31:18;;;;;;;7.05;1.98;;;;;;;;;;5035041;28;20113;-70
2022/09/17 12:33:54;;;;;;;9.75;1.85;;;;;;;;;;5035108;28;20029;-68
2022/09/17 12:36:41;;;;;;;11.40;1.92;;;;;;;;;;5034955;28;20394;-69
2022/09/17 12:39:32;;;;;;;9.18;1.75;;;;;;;;;;5035147;28;20034;-68
2022/09/17 12:42:01;;;;;;;9.70;1.80;;;;;;;;;;5035072;28;20030;-70
2022/09/17 12:44:38;;;;;;;6.80;1.73;;;;;;;;;;5034709;28;20026;-68
2022/09/17 12:47:41;;;;;;;12.85;3.22;;;;;;;;;;5033762;28;20033;-68
2022/09/17 12:50:19;;;;;;;12.35;2.15;;;;;;;;;;5034775;28;20033;-68
2022/09/17 12:53:13;;;;;;;11.60;2.03;;;;;;;;;;5034730;28;20022;-69
2022/09/17 12:55:41;;;;;;;16.88;2.47;;;;;;;;;;5034671;28;20134;-68
2022/09/17 12:58:19;;;;;;;8.15;1.98;;;;;;;;;;5034049;28;20075;-68
2022/09/17 13:00:53;;;;;;;10.00;1.63;;;;;;;;;;5033199;28;20025;-68
2022/09/17 13:03:25;;;;;;;14.07;2.17;;;;;;;;;;5033308;28;20026;-69
2022/09/17 13:06:00;;;;;;;10.73;2.10;;;;;;;;;;5034677;28;20025;-68
2022/09/17 13:08:40;;;;;;;13.88;2.08;;;;;;;;;;5034472;28;20474;-68
2022/09/17 13:11:14;;;;;;;17.25;1.85;;;;;;;;;;5034580;28;20100;-70
2022/09/17 13:14:02;;;;;;;9.93;2.17;;;;;;;;;;5034212;28;20053;-68
2022/09/17 13:16:47;;;;;;;10.43;2.10;;;;;;;;;;5034193;28;20437;-69
2022/09/17 13:19:42;;;;;;;10.65;1.95;;;;;;;;;;5034259;28;20025;-68
2022/09/17 13:22:20;;;;;;;9.90;2.10;;;;;;;;;;5046893;28;20037;-68
2022/09/17 13:24:59;;;;;;;9.05;2.35;;;;;;;;;;5054160;28;20029;-68
2022/09/17 13:27:26;;;;;;;11.57;2.28;;;;;;;;;;5054071;28;20478;-68
2022/09/17 13:29:55;;;;;;;8.55;1.73;;;;;;;;;;5054063;28;20382;-70
2022/09/17 13:32:33;;;;;;;5.88;1.73;;;;;;;;;;5054082;28;20438;-68
2022/09/17 13:35:11;;;;;;;12.50;2.25;;;;;;;;;;5053823;28;20025;-67
2022/09/17 13:37:39;;;;;;;9.68;1.70;;;;;;;;;;5053841;28;20439;-71
2022/09/17 13:40:37;;;;;;;5.85;1.42;;;;;;;;;;5053693;28;20031;-68
2022/09/17 13:43:02;;;;;;;9.60;1.58;;;;;;;;;;5053262;28;20039;-69
2022/09/17 13:45:28;;;;;;;12.73;2.30;;;;;;;;;;5053768;28;20116;-69
2022/09/17 13:47:55;;;;;;;7.05;1.58;;;;;;;;;;5053854;28;20470;-68
2022/09/17 13:50:32;;;;;;;12.27;2.03;;;;;;;;;;5053586;28;20036;-69
2022/09/17 13:53:26;;;;;;;11.10;2.05;;;;;;;;;;5052300;28;20052;-72
2022/09/17 13:55:57;;;;;;;10.90;1.98;;;;;;;;;;5052294;28;20408;-72
2022/09/17 13:58:25;;;;;;;9.68;1.50;;;;;;;;;;5053283;28;20071;-72
2022/09/17 14:01:09;;;;;;;10.82;1.92;;;;;;;;;;5053554;28;20382;-72
2022/09/17 14:03:40;;;;;;;10.57;1.90;;;;;;;;;;5053390;28;20382;-71
2022/09/17 14:06:13;;;;;;;8.68;2.17;;;;;;;;;;5053156;28;20048;-72
2022/09/17 14:08:54;;;;;;;5.85;1.42;;;;;;;;;;5052568;28;20025;-69
2022/09/17 14:11:22;;;;;;;10.15;1.50;;;;;;;;;;5053094;28;20029;-72
2022/09/17 14:14:03;;;;;;;6.15;1.58;;;;;;;;;;5053153;28;20024;-72
2022/09/17 14:16:39;;;;;;;5.55;1.50;;;;;;;;;;5053086;28;20024;-72
2022/09/17 14:19:42;;;;;;;10.27;2.30;;;;;;;;;;5052869;28;20033;-68
2022/09/17 14:22:07;;;;;;;7.78;2.00;;;;;;;;;;5052796;28;20036;-73
2022/09/17 14:24:47;;;;;;;22.00;2.85;;;;;;;;;;5053033;28;20029;-68
2022/09/17 14:27:13;;;;;;;;;;;;;;;;;;5053385;28;20029;-72
2022/09/17 14:29:45;;;;;;;8.88;1.60;;;;;;;;;;5052925;28;19923;-71
2022/09/17 14:32:38;;;;;;;6.13;1.58;;;;;;;;;;5052710;28;20033;-68
2022/09/17 14:35:36;;;;;;;9.80;1.70;;;;;;;;;;5052688;28;20098;-72
2022/09/17 14:38:31;;;;;;;7.93;1.67;;;;;;;;;;5049524;28;20040;-68
2022/09/17 14:41:02;;;;;;;7.18;1.48;;;;;;;;;;5052383;28;20069;-68
2022/09/17 14:43:40;;;;;;;11.23;1.83;;;;;;;;;;5052604;28;20108;-71
2022/09/17 14:46:08;;;;;;;8.00;2.17;;;;;;;;;;5052428;28;20029;-71
2022/09/17 14:48:35;;;;;;;11.45;1.65;;;;;;;;;;5052598;28;20029;-71
2022/09/17 14:51:30;;;;;;;8.80;1.83;;;;;;;;;;5052552;28;20607;-72
2022/09/17 14:54:04;;;;;;;11.88;1.75;;;;;;;;;;5047470;28;20148;-71
2022/09/17 14:56:32;;;;;;;8.32;1.75;;;;;;;;;;5052224;28;20025;-71
2022/09/17 14:58:58;;;;;;;7.55;1.65;;;;;;;;;;5052522;28;20052;-69
2022/09/17 15:01:29;;;;;;;5.80;1.45;;;;;;;;;;5052477;28;20056;-71
2022/09/17 15:04:12;;;;;;;4.97;1.10;;;;;;;;;;5052388;28;20466;-71
2022/09/17 15:06:39;;;;;;;11.65;1.90;;;;;;;;;;5052415;28;20041;-68
2022/09/17 15:09:05;;;;;;;5.45;1.60;;;;;;;;;;5052245;28;20431;-68
2022/09/17 15:11:39;;;;;;;7.75;1.52;;;;;;;;;;5050962;28;20103;-71
2022/09/17 15:14:09;;;;;;;9.32;1.17;;;;;;;;;;5052371;28;20017;-71
2022/09/17 15:16:35;;;;;;;5.75;1.27;;;;;;;;;;5052310;28;20040;-71